Time;durP1;ratioP1;P1;durP2;ratioP2;P2;SDS_P1;SDS_P2;PMS_P1;PMS_P2;Temp;Humidity;BMP_temperature;BMP_pressure;BME280_temperature;BME280_humidity;BME280_pressure;Samples;Min_cycle;Max_cycle;Signal;HPM_P1;HPM_P2
2021/12/15 00:00:54;;;;;;;;;49.25;39.50;;;;;;;;5099595;27;47008;-79
2021/12/15 00:03:19;;;;;;;;;47.00;39.00;;;;;;;;5099683;27;47308;-79
2021/12/15 00:05:46;;;;;;;;;46.25;38.50;;;;;;;;5099750;27;45806;-79
2021/12/15 00:08:11;;;;;;;;;48.75;39.50;;;;;;;;5101103;27;45249;-78
2021/12/15 00:10:40;;;;;;;;;48.75;40.00;;;;;;;;5100994;27;45410;-79
2021/12/15 00:13:05;;;;;;;;;51.25;38.25;;;;;;;;5099592;27;47362;-78
2021/12/15 00:15:31;;;;;;;;;44.50;35.75;;;;;;;;5099300;27;45329;-79
2021/12/15 00:17:57;;;;;;;;;46.75;37.50;;;;;;;;5099676;27;45234;-79
2021/12/15 00:20:22;;;;;;;;;51.50;42.00;;;;;;;;5099670;27;46852;-78
2021/12/15 00:22:52;;;;;;;;;48.75;40.50;;;;;;;;5100857;27;46061;-78
2021/12/15 00:25:19;;;;;;;;;53.75;43.00;;;;;;;;5099340;27;45191;-78
2021/12/15 00:27:44;;;;;;;;;48.75;40.00;;;;;;;;5099412;27;45400;-79
2021/12/15 00:30:10;;;;;;;;;49.25;39.75;;;;;;;;5100435;27;45623;-78
2021/12/15 00:32:35;;;;;;;;;49.50;40.00;;;;;;;;5100507;27;45304;-79
2021/12/15 00:35:00;;;;;;;;;54.00;42.25;;;;;;;;5099430;27;45291;-79
2021/12/15 00:37:26;;;;;;;;;49.25;40.00;;;;;;;;5100837;27;45202;-79
2021/12/15 00:39:51;;;;;;;;;49.25;40.00;;;;;;;;5099003;27;47138;-79
2021/12/15 00:42:16;;;;;;;;;48.50;41.25;;;;;;;;5082701;27;46941;-79
2021/12/15 00:44:42;;;;;;;;;48.00;38.50;;;;;;;;5079889;27;45263;-79
2021/12/15 00:47:08;;;;;;;;;48.00;38.75;;;;;;;;5078713;28;45415;-79
2021/12/15 00:49:35;;;;;;;;;51.50;41.75;;;;;;;;5078681;28;45364;-79
2021/12/15 00:52:00;;;;;;;;;47.50;39.00;;;;;;;;5078688;28;45333;-79
2021/12/15 00:54:25;;;;;;;;;45.75;37.75;;;;;;;;5078634;28;45355;-79
2021/12/15 00:56:53;;;;;;;;;47.50;38.25;;;;;;;;5080060;28;45365;-79
2021/12/15 00:59:18;;;;;;;;;52.75;41.25;;;;;;;;5079725;27;45288;-78
2021/12/15 01:01:44;;;;;;;;;48.25;38.50;;;;;;;;5078113;28;47945;-79
2021/12/15 01:04:10;;;;;;;;;41.75;31.50;;;;;;;;5079923;28;45431;-79
2021/12/15 01:06:36;;;;;;;;;48.25;38.50;;;;;;;;5078613;28;45301;-79
2021/12/15 01:09:05;;;;;;;;;47.00;38.50;;;;;;;;5079634;27;45469;-79
2021/12/15 01:19:53;;;;;;;;;43.00;36.25;;;;;;;;5079451;28;45262;-79
2021/12/15 01:22:36;;;;;;;;;41.25;35.75;;;;;;;;5079721;27;46532;-78
2021/12/15 01:25:06;;;;;;;;;45.25;38.25;;;;;;;;5079460;27;45293;-79
2021/12/15 01:27:31;;;;;;;;;46.25;37.00;;;;;;;;5078149;28;45421;-79
2021/12/15 01:29:56;;;;;;;;;48.75;39.25;;;;;;;;5077686;28;46602;-79
2021/12/15 01:32:22;;;;;;;;;44.25;36.00;;;;;;;;5079382;27;45362;-78
2021/12/15 01:34:47;;;;;;;;;47.25;40.25;;;;;;;;5078169;28;45179;-79
2021/12/15 01:37:13;;;;;;;;;45.75;36.25;;;;;;;;5079552;27;45271;-79
2021/12/15 01:39:39;;;;;;;;;46.00;36.50;;;;;;;;5077999;28;46906;-79
2021/12/15 01:42:05;;;;;;;;;45.25;36.50;;;;;;;;5092478;27;47509;-79
2021/12/15 01:47:01;;;;;;;;;45.00;35.50;;;;;;;;5099683;27;45267;-79
2021/12/15 01:49:41;;;;;;;;;42.00;35.00;;;;;;;;5097988;27;46923;-78
2021/12/15 01:52:12;;;;;;;;;49.00;38.75;;;;;;;;5103059;27;45322;-79
2021/12/15 01:54:38;;;;;;;;;46.25;36.00;;;;;;;;5101718;27;45439;-79
2021/12/15 01:57:05;;;;;;;;;44.50;37.75;;;;;;;;5103182;27;45625;-79
2021/12/15 01:59:30;;;;;;;;;50.75;38.25;;;;;;;;5101331;27;46120;-79
2021/12/15 02:01:56;;;;;;;;;43.00;35.00;;;;;;;;5101442;27;47225;-79
2021/12/15 02:04:21;;;;;;;;;45.00;37.25;;;;;;;;5101553;27;45854;-79
2021/12/15 02:06:47;;;;;;;;;45.50;36.50;;;;;;;;5103125;27;45479;-79
2021/12/15 02:09:20;;;;;;;;;28.25;26.75;;;;;;;;5101505;27;46943;-78
2021/12/15 02:11:45;;;;;;;;;47.00;37.00;;;;;;;;5102857;27;45405;-79
2021/12/15 02:14:11;;;;;;;;;40.25;35.00;;;;;;;;5102764;27;45287;-79
2021/12/15 02:16:36;;;;;;;;;38.67;34.67;;;;;;;;5103124;27;45164;-79
2021/12/15 02:19:02;;;;;;;;;41.00;35.75;;;;;;;;5101392;27;45927;-79
2021/12/15 02:21:27;;;;;;;;;42.00;36.75;;;;;;;;5102728;27;45578;-79
2021/12/15 02:23:56;;;;;;;;;39.00;34.00;;;;;;;;5102680;27;45336;-79
2021/12/15 02:26:35;;;;;;;;;47.00;38.00;;;;;;;;5101780;27;45282;-78
2021/12/15 02:29:02;;;;;;;;;44.25;37.00;;;;;;;;5102532;27;45479;-79
2021/12/15 02:31:40;;;;;;;;;41.50;35.50;;;;;;;;5101171;27;46339;-79
2021/12/15 02:34:32;;;;;;;;;44.25;37.00;;;;;;;;5102474;27;45304;-79
2021/12/15 02:37:18;;;;;;;;;42.00;35.75;;;;;;;;5102613;27;45324;-79
2021/12/15 02:39:45;;;;;;;;;46.25;38.75;;;;;;;;5102331;27;45270;-79
2021/12/15 02:42:10;;;;;;;;;40.00;36.00;;;;;;;;5085201;27;47271;-79
2021/12/15 02:44:41;;;;;;;;;34.75;31.75;;;;;;;;5081663;27;45386;-79
2021/12/15 02:47:06;;;;;;;;;37.25;33.00;;;;;;;;5080599;28;45283;-79
2021/12/15 02:49:31;;;;;;;;;45.75;38.50;;;;;;;;5080154;28;46345;-79
2021/12/15 02:51:58;;;;;;;;;45.75;38.75;;;;;;;;5081758;27;46447;-79
2021/12/15 02:54:24;;;;;;;;;44.25;37.50;;;;;;;;5081774;27;45322;-79
2021/12/15 02:56:52;;;;;;;;;39.25;34.50;;;;;;;;5081843;27;45528;-78
2021/12/15 02:59:23;;;;;;;;;37.50;34.50;;;;;;;;5080130;28;46366;-79
2021/12/15 03:06:58;;;;;;;;;50.00;39.75;;;;;;;;5081583;27;45200;-77
2021/12/15 03:17:35;;;;;;;;;33.50;29.00;;;;;;;;5081308;28;45386;-79
2021/12/15 03:20:00;;;;;;;;;33.00;31.00;;;;;;;;5079910;28;46009;-79
2021/12/15 03:22:25;;;;;;;;;39.33;32.67;;;;;;;;5081220;27;45317;-79
2021/12/15 03:24:50;;;;;;;;;43.67;35.00;;;;;;;;5079917;28;45217;-79
2021/12/15 03:27:21;;;;;;;;;34.00;29.00;;;;;;;;5080058;28;45292;-79
2021/12/15 03:35:20;;;;;;;;;36.33;32.00;;;;;;;;5081012;28;45360;-79
2021/12/15 03:37:50;;;;;;;;;36.00;33.67;;;;;;;;5081189;28;45344;-78
2021/12/15 03:40:19;;;;;;;;;38.50;33.75;;;;;;;;5081097;27;45531;-79
2021/12/15 03:42:46;;;;;;;;;39.50;34.25;;;;;;;;5101044;27;45261;-79
2021/12/15 03:45:14;;;;;;;;;38.00;34.00;;;;;;;;5101200;27;45269;-78
2021/12/15 03:47:41;;;;;;;;;39.00;31.33;;;;;;;;5101083;27;45294;-79
2021/12/15 03:50:08;;;;;;;;;35.00;33.00;;;;;;;;5099992;27;47188;-79
2021/12/15 03:52:33;;;;;;;;;40.00;34.50;;;;;;;;5099809;27;48158;-78
2021/12/15 03:54:59;;;;;;;;;35.00;30.00;;;;;;;;5101170;27;45234;-79
2021/12/15 03:57:24;;;;;;;;;37.67;31.33;;;;;;;;5100095;27;45227;-78
2021/12/15 03:59:50;;;;;;;;;42.50;34.50;;;;;;;;5099483;27;46062;-79
2021/12/15 04:02:17;;;;;;;;;45.00;34.50;;;;;;;;5099403;27;47062;-78
2021/12/15 04:04:43;;;;;;;;;33.00;32.00;;;;;;;;5099933;27;45249;-78
2021/12/15 04:07:09;;;;;;;;;37.67;31.00;;;;;;;;5101187;27;45357;-79
2021/12/15 04:09:34;;;;;;;;;40.75;32.75;;;;;;;;5099504;27;45817;-78
2021/12/15 04:12:00;;;;;;;;;37.75;32.75;;;;;;;;5100895;27;45414;-78
2021/12/15 04:14:31;;;;;;;;;39.00;34.50;;;;;;;;5098734;27;45298;-78
2021/12/15 04:17:05;;;;;;;;;42.50;35.75;;;;;;;;5099574;27;45267;-78
2021/12/15 04:19:31;;;;;;;;;43.25;35.00;;;;;;;;5099255;27;47003;-78
2021/12/15 04:21:57;;;;;;;;;35.75;33.00;;;;;;;;5100944;27;45471;-79
2021/12/15 04:24:25;;;;;;;;;34.00;28.50;;;;;;;;5099417;27;45241;-79
2021/12/15 04:26:51;;;;;;;;;38.33;33.00;;;;;;;;5099629;27;45322;-79
2021/12/15 04:29:16;;;;;;;;;34.33;29.67;;;;;;;;5098993;27;45819;-79
2021/12/15 04:31:46;;;;;;;;;34.25;29.75;;;;;;;;5099298;27;47130;-78
2021/12/15 04:34:12;;;;;;;;;36.00;32.00;;;;;;;;5100815;27;45283;-79
2021/12/15 04:36:39;;;;;;;;;38.00;31.67;;;;;;;;5099398;27;45249;-79
2021/12/15 04:39:05;;;;;;;;;35.75;32.75;;;;;;;;5100667;27;45468;-78
2021/12/15 04:41:30;;;;;;;;;43.33;33.33;;;;;;;;5088896;27;47601;-78
2021/12/15 04:43:58;;;;;;;;;38.25;34.00;;;;;;;;5078422;28;45262;-79
2021/12/15 04:46:32;;;;;;;;;43.50;34.25;;;;;;;;5078679;28;45251;-79
2021/12/15 04:48:57;;;;;;;;;35.67;32.00;;;;;;;;5078324;28;46258;-79
2021/12/15 04:51:22;;;;;;;;;38.33;32.33;;;;;;;;5078490;28;47337;-78
2021/12/15 04:53:48;;;;;;;;;42.67;35.00;;;;;;;;5078618;28;45737;-78
2021/12/15 04:56:13;;;;;;;;;35.00;32.00;;;;;;;;5078861;28;45142;-78
2021/12/15 04:58:39;;;;;;;;;36.75;34.25;;;;;;;;5078351;28;46061;-79
2021/12/15 05:01:07;;;;;;;;;33.33;28.33;;;;;;;;5079789;27;46574;-78
2021/12/15 05:03:33;;;;;;;;;37.33;32.67;;;;;;;;5078387;28;45299;-79
2021/12/15 05:05:58;;;;;;;;;35.33;29.00;;;;;;;;5078617;28;45331;-78
2021/12/15 05:08:23;;;;;;;;;34.67;31.33;;;;;;;;5078428;28;47039;-78
2021/12/15 05:10:50;;;;;;;;;39.00;32.00;;;;;;;;5078494;28;48348;-78
2021/12/15 05:13:15;;;;;;;;;40.67;33.33;;;;;;;;5079769;28;45395;-79
2021/12/15 05:15:41;;;;;;;;;42.67;32.67;;;;;;;;5078455;28;45606;-78
2021/12/15 05:18:07;;;;;;;;;34.00;29.67;;;;;;;;5078293;28;47330;-78
2021/12/15 05:20:34;;;;;;;;;31.67;30.67;;;;;;;;5078357;28;48552;-78
2021/12/15 05:23:01;;;;;;;;;35.00;29.33;;;;;;;;5078261;28;45228;-78
2021/12/15 05:25:27;;;;;;;;;35.00;30.33;;;;;;;;5082313;27;45269;-78
2021/12/15 05:27:52;;;;;;;;;32.33;31.00;;;;;;;;5081548;28;45903;-79
2021/12/15 05:30:18;;;;;;;;;33.33;31.33;;;;;;;;5083069;27;46387;-79
2021/12/15 05:32:43;;;;;;;;;26.33;24.67;;;;;;;;5081614;28;45779;-79
2021/12/15 05:35:14;;;;;;;;;34.67;29.67;;;;;;;;5081842;28;45420;-78
2021/12/15 05:37:40;;;;;;;;;31.00;28.33;;;;;;;;5083133;27;45310;-78
2021/12/15 05:40:05;;;;;;;;;31.67;28.67;;;;;;;;5081455;28;48334;-78
2021/12/15 05:42:31;;;;;;;;;29.33;25.67;;;;;;;;5100036;27;45985;-78
2021/12/15 05:44:56;;;;;;;;;28.33;27.33;;;;;;;;5103429;27;45237;-78
2021/12/15 05:47:22;;;;;;;;;35.67;31.00;;;;;;;;5103068;27;45261;-78
2021/12/15 05:49:48;;;;;;;;;23.33;23.33;;;;;;;;5101890;27;47369;-78
2021/12/15 05:52:13;;;;;;;;;33.33;28.33;;;;;;;;5101716;27;45365;-78
2021/12/15 05:54:38;;;;;;;;;26.33;24.33;;;;;;;;5103360;27;45389;-79
2021/12/15 05:57:04;;;;;;;;;28.67;25.67;;;;;;;;5101492;27;46962;-82
2021/12/15 05:59:29;;;;;;;;;32.33;30.00;;;;;;;;5101715;27;46850;-82
2021/12/15 06:01:55;;;;;;;;;34.00;27.33;;;;;;;;5101641;27;45403;-81
2021/12/15 06:04:20;;;;;;;;;29.00;25.67;;;;;;;;5103192;27;45307;-80
2021/12/15 06:06:46;;;;;;;;;34.67;31.67;;;;;;;;5101475;27;46036;-82
2021/12/15 06:09:12;;;;;;;;;28.67;24.33;;;;;;;;5101418;27;47035;-80
2021/12/15 06:11:38;;;;;;;;;28.67;27.67;;;;;;;;5101505;27;45317;-78
2021/12/15 06:14:04;;;;;;;;;29.67;28.00;;;;;;;;5101500;27;45427;-78
2021/12/15 06:16:29;;;;;;;;;27.33;25.67;;;;;;;;5101629;27;46404;-78
2021/12/15 06:18:54;;;;;;;;;28.67;28.67;;;;;;;;5101398;27;48520;-78
2021/12/15 06:21:20;;;;;;;;;33.67;30.00;;;;;;;;5101597;27;45255;-78
2021/12/15 06:23:47;;;;;;;;;29.00;27.33;;;;;;;;5103078;27;45203;-78
2021/12/15 06:26:13;;;;;;;;;31.00;27.33;;;;;;;;5102874;27;45413;-77
2021/12/15 06:28:38;;;;;;;;;33.00;28.00;;;;;;;;5100843;27;47130;-80
2021/12/15 06:31:06;;;;;;;;;36.00;31.00;;;;;;;;5101260;27;45739;-80
2021/12/15 06:33:32;;;;;;;;;32.00;27.67;;;;;;;;5101180;27;45315;-80
2021/12/15 06:35:59;;;;;;;;;24.67;23.33;;;;;;;;5101981;27;45463;-80
2021/12/15 06:38:26;;;;;;;;;28.33;27.00;;;;;;;;5101221;27;48095;-79
2021/12/15 06:40:51;;;;;;;;;25.33;24.67;;;;;;;;5096379;27;45740;-78
2021/12/15 06:43:17;;;;;;;;;30.67;26.00;;;;;;;;5081955;27;45239;-78
2021/12/15 06:59:33;;;;;;;;;26.67;26.00;;;;;;;;5081239;28;45771;-79
2021/12/15 07:01:58;;;;;;;;;35.00;29.33;;;;;;;;5081400;27;45349;-79
2021/12/15 07:04:23;;;;;;;;;27.00;27.00;;;;;;;;5081873;27;45619;-79
2021/12/15 07:06:49;;;;;;;;;31.33;27.33;;;;;;;;5080455;28;47266;-80
2021/12/15 07:09:15;;;;;;;;;27.00;25.33;;;;;;;;5081515;27;45473;-80
2021/12/15 07:11:41;;;;;;;;;25.67;25.00;;;;;;;;5081616;27;45331;-80
2021/12/15 07:14:06;;;;;;;;;26.67;23.00;;;;;;;;5080120;28;45334;-80
2021/12/15 07:16:33;;;;;;;;;28.33;26.33;;;;;;;;5080057;28;47228;-80
2021/12/15 07:19:08;;;;;;;;;25.00;25.00;;;;;;;;5080133;28;47250;-80
2021/12/15 07:21:37;;;;;;;;;23.67;22.33;;;;;;;;5079449;28;45382;-80
2021/12/15 07:24:03;;;;;;;;;28.00;25.67;;;;;;;;5079804;28;45389;-80
2021/12/15 07:26:28;;;;;;;;;31.33;27.00;;;;;;;;5079914;28;46149;-80
2021/12/15 07:28:53;;;;;;;;;34.00;28.00;;;;;;;;5080868;28;45629;-80
2021/12/15 07:31:19;;;;;;;;;26.00;22.67;;;;;;;;5081316;27;45247;-80
2021/12/15 07:33:44;;;;;;;;;35.50;33.00;;;;;;;;5079909;28;45448;-80
2021/12/15 07:36:10;;;;;;;;;30.00;26.75;;;;;;;;5079715;28;46862;-79
2021/12/15 07:38:41;;;;;;;;;28.33;27.00;;;;;;;;5081368;27;46056;-79
2021/12/15 07:41:07;;;;;;;;;39.00;32.33;;;;;;;;5086297;27;45809;-79
2021/12/15 07:43:32;;;;;;;;;34.67;31.67;;;;;;;;5100960;27;45454;-79
2021/12/15 07:46:02;;;;;;;;;37.33;33.00;;;;;;;;5101210;27;46017;-78
2021/12/15 07:48:34;;;;;;;;;34.75;32.50;;;;;;;;5099019;27;47485;-78
2021/12/15 07:51:01;;;;;;;;;41.75;32.75;;;;;;;;5100113;27;45329;-78
2021/12/15 07:53:27;;;;;;;;;33.33;31.00;;;;;;;;5100878;27;45491;-79
2021/12/15 07:55:53;;;;;;;;;36.00;32.50;;;;;;;;5101445;27;45870;-79
2021/12/15 07:58:18;;;;;;;;;35.33;33.00;;;;;;;;5099770;27;48281;-78
2021/12/15 08:00:45;;;;;;;;;33.75;29.75;;;;;;;;5099771;27;45313;-77
2021/12/15 08:03:11;;;;;;;;;35.33;32.67;;;;;;;;5101224;27;45334;-79
2021/12/15 08:05:37;;;;;;;;;43.00;35.00;;;;;;;;5099473;27;47012;-78
2021/12/15 08:08:03;;;;;;;;;34.00;31.75;;;;;;;;5101040;27;45611;-77
2021/12/15 08:10:30;;;;;;;;;48.25;37.00;;;;;;;;5100884;27;45345;-78
2021/12/15 08:12:55;;;;;;;;;41.00;35.50;;;;;;;;5099833;27;45364;-78
2021/12/15 08:15:20;;;;;;;;;37.50;32.50;;;;;;;;5099418;27;46334;-77
2021/12/15 08:17:52;;;;;;;;;37.75;32.25;;;;;;;;5099839;27;46466;-77
2021/12/15 08:20:18;;;;;;;;;44.25;34.75;;;;;;;;5100935;27;45340;-77
2021/12/15 08:22:43;;;;;;;;;42.75;34.75;;;;;;;;5100863;27;45255;-77
2021/12/15 08:25:09;;;;;;;;;39.00;34.00;;;;;;;;5099549;27;46869;-77
2021/12/15 08:27:35;;;;;;;;;45.50;38.25;;;;;;;;5100703;27;46732;-77
2021/12/15 08:30:00;;;;;;;;;42.75;37.00;;;;;;;;5099057;27;45928;-77
2021/12/15 08:32:25;;;;;;;;;46.00;37.00;;;;;;;;5099512;27;45225;-77
2021/12/15 08:34:51;;;;;;;;;45.50;37.75;;;;;;;;5100712;27;45439;-77
2021/12/15 08:37:16;;;;;;;;;43.75;37.25;;;;;;;;5100753;27;46283;-77
2021/12/15 08:39:42;;;;;;;;;43.25;37.00;;;;;;;;5100645;27;45204;-77
2021/12/15 08:42:08;;;;;;;;;45.50;35.25;;;;;;;;5085161;27;45541;-77
2021/12/15 08:44:33;;;;;;;;;48.25;39.25;;;;;;;;5078404;28;46312;-77
2021/12/15 08:46:59;;;;;;;;;49.25;39.75;;;;;;;;5078482;28;47477;-77
2021/12/15 08:49:24;;;;;;;;;45.75;36.00;;;;;;;;5078713;28;45324;-77
2021/12/15 08:51:50;;;;;;;;;48.25;39.25;;;;;;;;5080279;27;45325;-77
2021/12/15 08:54:18;;;;;;;;;36.25;31.75;;;;;;;;5080042;27;45298;-77
2021/12/15 08:56:43;;;;;;;;;42.75;36.25;;;;;;;;5078616;28;47955;-77
2021/12/15 08:59:09;;;;;;;;;48.25;38.00;;;;;;;;5079256;27;46311;-77
2021/12/15 09:01:35;;;;;;;;;40.00;35.25;;;;;;;;5078577;28;45249;-77
2021/12/15 09:04:00;;;;;;;;;40.50;35.75;;;;;;;;5078530;28;46884;-77
2021/12/15 09:06:26;;;;;;;;;42.25;36.25;;;;;;;;5078280;28;47028;-77
2021/12/15 09:08:51;;;;;;;;;47.00;38.00;;;;;;;;5078553;28;45289;-77
2021/12/15 09:11:18;;;;;;;;;43.75;38.25;;;;;;;;5078519;28;45287;-77
2021/12/15 09:13:44;;;;;;;;;46.50;35.75;;;;;;;;5061338;28;46165;-77
2021/12/15 09:16:11;;;;;;;;;50.00;38.00;;;;;;;;5078226;28;47261;-77
2021/12/15 09:18:37;;;;;;;;;46.00;37.50;;;;;;;;5078265;28;45260;-77
2021/12/15 09:21:04;;;;;;;;;47.75;39.50;;;;;;;;5079926;27;45507;-77
2021/12/15 09:23:29;;;;;;;;;38.50;33.00;;;;;;;;5078073;28;46304;-77
2021/12/15 09:25:55;;;;;;;;;44.00;35.75;;;;;;;;5078138;28;47286;-77
2021/12/15 09:28:20;;;;;;;;;39.50;34.50;;;;;;;;5079320;27;45216;-77
2021/12/15 09:30:47;;;;;;;;;39.67;35.67;;;;;;;;5079675;28;45518;-77
2021/12/15 09:33:16;;;;;;;;;44.50;38.25;;;;;;;;5077964;28;46115;-77
2021/12/15 09:35:41;;;;;;;;;44.75;37.25;;;;;;;;5077916;28;47165;-77
2021/12/15 09:38:06;;;;;;;;;43.50;36.00;;;;;;;;5078063;28;45317;-77
2021/12/15 09:40:31;;;;;;;;;37.00;32.50;;;;;;;;5079824;27;45370;-77
2021/12/15 09:42:57;;;;;;;;;43.25;36.00;;;;;;;;5098251;27;47116;-77
2021/12/15 10:12:27;;;;;;;;;39.67;33.33;;;;;;;;5101135;27;45306;-78
2021/12/15 10:17:46;;;;;;;;;32.33;30.67;;;;;;;;5104363;27;45945;-79
2021/12/15 10:20:18;;;;;;;;;29.00;27.33;;;;;;;;5095619;27;45366;-79
2021/12/15 10:22:46;;;;;;;;;37.33;33.33;;;;;;;;5081845;27;45321;-80
2021/12/15 10:25:20;;;;;;;;;40.33;33.33;;;;;;;;5081985;27;45223;-78
2021/12/15 10:27:48;;;;;;;;;40.50;34.00;;;;;;;;5081926;27;45346;-79
2021/12/15 10:30:18;;;;;;;;;42.00;34.00;;;;;;;;5081996;27;45350;-79
2021/12/15 10:32:45;;;;;;;;;43.75;36.00;;;;;;;;5082669;28;45351;-79
2021/12/15 10:35:13;;;;;;;;;39.33;32.00;;;;;;;;5081866;28;46704;-80
2021/12/15 10:37:39;;;;;;;;;44.00;36.00;;;;;;;;5082811;27;46214;-79
2021/12/15 10:40:09;;;;;;;;;34.50;30.50;;;;;;;;5082129;28;45306;-81
2021/12/15 10:42:34;;;;;;;;;42.00;34.50;;;;;;;;5102127;27;45235;-81
2021/12/15 10:45:07;;;;;;;;;44.75;35.75;;;;;;;;5100728;27;46071;-80
2021/12/15 10:47:39;;;;;;;;;45.00;36.00;;;;;;;;5100739;27;47765;-81
2021/12/15 10:50:04;;;;;;;;;42.25;35.75;;;;;;;;5102141;27;45598;-80
2021/12/15 10:52:29;;;;;;;;;39.75;33.50;;;;;;;;5100807;27;45400;-80
2021/12/15 10:55:00;;;;;;;;;37.67;29.67;;;;;;;;5102173;27;45308;-81
2021/12/15 10:57:34;;;;;;;;;38.25;34.50;;;;;;;;5101338;27;47214;-80
2021/12/15 11:00:19;;;;;;;;;44.50;36.00;;;;;;;;5102588;27;45148;-79
2021/12/15 11:02:44;;;;;;;;;41.75;35.50;;;;;;;;5102409;27;45352;-80
2021/12/15 11:05:39;;;;;;;;;44.25;36.00;;;;;;;;5102074;27;45218;-79
2021/12/15 11:08:04;;;;;;;;;47.00;38.00;;;;;;;;5101908;27;45549;-78
2021/12/15 11:10:37;;;;;;;;;47.50;37.00;;;;;;;;5102026;27;45227;-79
2021/12/15 11:13:04;;;;;;;;;40.75;35.50;;;;;;;;5102315;27;45356;-79
2021/12/15 11:15:39;;;;;;;;;44.67;35.33;;;;;;;;5102042;27;45284;-81
2021/12/15 11:18:12;;;;;;;;;44.25;36.75;;;;;;;;5101418;27;45796;-81
2021/12/15 11:20:39;;;;;;;;;43.75;36.75;;;;;;;;5101806;27;45258;-80
2021/12/15 11:23:05;;;;;;;;;40.50;35.25;;;;;;;;5100502;27;45399;-81
2021/12/15 11:25:39;;;;;;;;;45.25;36.25;;;;;;;;5100325;27;46082;-81
2021/12/15 11:28:05;;;;;;;;;42.00;32.00;;;;;;;;5099846;27;46418;-81
2021/12/15 11:30:36;;;;;;;;;37.00;32.00;;;;;;;;5100539;27;45228;-79
2021/12/15 11:33:07;;;;;;;;;44.67;35.00;;;;;;;;5100678;27;45329;-80
2021/12/15 11:35:38;;;;;;;;;41.67;33.67;;;;;;;;5095684;27;47226;-79
2021/12/15 11:38:13;;;;;;;;;40.33;33.33;;;;;;;;5079047;28;47552;-80
2021/12/15 11:40:41;;;;;;;;;38.00;33.00;;;;;;;;5083913;27;45336;-80
2021/12/15 11:43:07;;;;;;;;;40.25;35.00;;;;;;;;5101306;27;45306;-79
2021/12/15 11:45:34;;;;;;;;;41.00;33.67;;;;;;;;5101326;27;45643;-79
2021/12/15 11:48:13;;;;;;;;;37.00;32.67;;;;;;;;5100882;27;45333;-81
2021/12/15 11:50:39;;;;;;;;;42.00;34.67;;;;;;;;5099916;27;45728;-79
2021/12/15 11:53:05;;;;;;;;;42.33;33.00;;;;;;;;5100002;27;45305;-82
2021/12/15 11:55:33;;;;;;;;;39.67;32.33;;;;;;;;5101143;27;45477;-81
2021/12/15 11:57:59;;;;;;;;;40.33;33.00;;;;;;;;5099682;27;47203;-80
2021/12/15 12:00:26;;;;;;;;;33.67;32.00;;;;;;;;5099882;27;45259;-80
2021/12/15 12:02:54;;;;;;;;;37.00;33.00;;;;;;;;5099875;27;45436;-81
2021/12/15 12:05:28;;;;;;;;;38.00;33.00;;;;;;;;5099737;27;46111;-79
2021/12/15 12:07:57;;;;;;;;;41.67;35.33;;;;;;;;5100859;27;45428;-80
2021/12/15 12:10:28;;;;;;;;;34.67;32.33;;;;;;;;5101261;27;45224;-81
2021/12/15 12:13:04;;;;;;;;;36.67;33.67;;;;;;;;5099835;27;45248;-81
2021/12/15 12:15:31;;;;;;;;;36.00;32.33;;;;;;;;5100899;27;45361;-82
2021/12/15 12:17:58;;;;;;;;;37.00;29.67;;;;;;;;5100800;27;45584;-80
2021/12/15 12:20:28;;;;;;;;;39.33;32.67;;;;;;;;5100859;27;45425;-82
2021/12/15 12:22:54;;;;;;;;;37.33;32.33;;;;;;;;5101138;27;45263;-85
2021/12/15 12:25:21;;;;;;;;;32.33;29.67;;;;;;;;5099616;27;46199;-82
2021/12/15 12:27:47;;;;;;;;;37.33;31.00;;;;;;;;5100096;27;46505;-83
2021/12/15 12:30:14;;;;;;;;;30.00;30.00;;;;;;;;5078064;27;45453;-79
2021/12/15 12:32:40;;;;;;;;;30.33;26.00;;;;;;;;5077949;28;45425;-81
2021/12/15 12:35:08;;;;;;;;;31.33;28.33;;;;;;;;5078671;27;45354;-82
2021/12/15 12:37:33;;;;;;;;;33.00;30.00;;;;;;;;5077398;28;48022;-80
2021/12/15 12:40:04;;;;;;;;;23.67;23.67;;;;;;;;5077083;27;45385;-82
2021/12/15 12:42:35;;;;;;;;;25.33;24.00;;;;;;;;5097997;27;45305;-83
2021/12/15 12:45:16;;;;;;;;;21.00;20.67;;;;;;;;5100089;27;45565;-80
2021/12/15 12:47:59;;;;;;;;;27.00;23.00;;;;;;;;5098666;27;47258;-80
2021/12/15 13:01:18;;;;;;;;;26.00;21.67;;;;;;;;5100679;27;45360;-78
2021/12/15 13:03:46;;;;;;;;;55.00;44.00;;;;;;;;5099185;27;45260;-78
2021/12/15 13:06:16;;;;;;;;;48.75;39.75;;;;;;;;5100276;27;45307;-78
2021/12/15 13:08:46;;;;;;;;;32.67;29.67;;;;;;;;5098789;27;47673;-80
2021/12/15 13:11:22;;;;;;;;;30.33;28.67;;;;;;;;5098637;27;46298;-80
2021/12/15 13:13:47;;;;;;;;;51.00;42.00;;;;;;;;5098717;27;45472;-79
2021/12/15 13:16:12;;;;;;;;;81.75;71.75;;;;;;;;5100092;27;45220;-78
2021/12/15 13:18:45;;;;;;;;;41.67;35.00;;;;;;;;5099792;27;46483;-77
2021/12/15 13:21:13;;;;;;;;;31.33;30.33;;;;;;;;5099970;27;45366;-78
2021/12/15 13:23:49;;;;;;;;;26.33;26.33;;;;;;;;5100152;27;45401;-77
2021/12/15 13:29:19;;;;;;;;;48.33;38.67;;;;;;;;5099427;27;45506;-77
2021/12/15 13:31:59;;;;;;;;;36.00;33.00;;;;;;;;5100438;27;45348;-77
2021/12/15 13:34:37;;;;;;;;;26.33;25.33;;;;;;;;5099528;27;45326;-77
2021/12/15 13:37:03;;;;;;;;;30.00;29.33;;;;;;;;5098525;27;46593;-77
2021/12/15 13:39:40;;;;;;;;;29.33;27.00;;;;;;;;5094654;27;45335;-79
2021/12/15 13:42:12;;;;;;;;;31.67;29.33;;;;;;;;5092606;27;45363;-79
2021/12/15 13:44:49;;;;;;;;;28.67;27.67;;;;;;;;5098035;27;45288;-79
2021/12/15 13:47:15;;;;;;;;;20.33;16.67;;;;;;;;5100231;27;47557;-78
2021/12/15 13:49:51;;;;;;;;;34.00;28.00;;;;;;;;5101591;27;46538;-78
2021/12/15 13:52:16;;;;;;;;;34.67;31.33;;;;;;;;5101809;27;45277;-78
2021/12/15 13:54:42;;;;;;;;;38.67;34.00;;;;;;;;5101957;27;45414;-77
2021/12/15 13:57:13;;;;;;;;;39.00;32.67;;;;;;;;5101963;27;46349;-78
2021/12/15 13:59:41;;;;;;;;;24.33;24.00;;;;;;;;5102837;27;45594;-77
2021/12/15 14:02:12;;;;;;;;;25.33;23.67;;;;;;;;5101500;27;46333;-78
2021/12/15 14:04:40;;;;;;;;;28.67;28.67;;;;;;;;5103222;27;45254;-78
2021/12/15 14:07:24;;;;;;;;;28.67;26.33;;;;;;;;5103450;27;45324;-78
2021/12/15 14:09:49;;;;;;;;;38.67;32.00;;;;;;;;5101350;27;46451;-79
2021/12/15 14:12:14;;;;;;;;;31.67;29.67;;;;;;;;5103132;27;45293;-79
2021/12/15 14:14:45;;;;;;;;;27.00;24.00;;;;;;;;5101583;27;45495;-79
2021/12/15 14:17:10;;;;;;;;;28.67;26.00;;;;;;;;5102704;27;45283;-79
2021/12/15 14:19:39;;;;;;;;;36.33;32.00;;;;;;;;5102678;27;45312;-78
2021/12/15 14:22:09;;;;;;;;;40.00;32.67;;;;;;;;5102814;27;45373;-79
2021/12/15 14:24:34;;;;;;;;;29.00;28.00;;;;;;;;5101439;27;45317;-78
2021/12/15 14:27:00;;;;;;;;;34.67;30.00;;;;;;;;5101096;27;46578;-79
2021/12/15 14:29:26;;;;;;;;;34.00;32.00;;;;;;;;5102086;27;45627;-79
2021/12/15 14:31:53;;;;;;;;;38.67;33.33;;;;;;;;5102606;27;45298;-79
2021/12/15 14:34:20;;;;;;;;;33.67;30.00;;;;;;;;5101289;27;45393;-78
2021/12/15 14:36:48;;;;;;;;;47.75;39.50;;;;;;;;5101267;27;47253;-79
2021/12/15 14:39:23;;;;;;;;;37.75;34.00;;;;;;;;5102310;27;46868;-78
2021/12/15 14:42:00;;;;;;;;;30.67;28.33;;;;;;;;5089734;27;45337;-78
2021/12/15 14:44:28;;;;;;;;;33.00;30.00;;;;;;;;5080578;28;45200;-79
2021/12/15 14:46:56;;;;;;;;;41.33;34.00;;;;;;;;5081726;27;45988;-79
2021/12/15 14:49:26;;;;;;;;;38.00;30.33;;;;;;;;5080035;28;48525;-78
2021/12/15 14:51:53;;;;;;;;;42.67;35.33;;;;;;;;5080262;28;45482;-78
2021/12/15 14:54:20;;;;;;;;;39.33;34.00;;;;;;;;5080598;27;45300;-79
2021/12/15 14:56:46;;;;;;;;;38.00;33.33;;;;;;;;5081334;27;45329;-79
2021/12/15 14:59:19;;;;;;;;;37.67;31.00;;;;;;;;5080075;28;47173;-79
2021/12/15 15:01:46;;;;;;;;;30.00;27.67;;;;;;;;5080189;28;46445;-81
2021/12/15 15:04:13;;;;;;;;;33.00;30.33;;;;;;;;5080471;28;45326;-78
2021/12/15 15:06:39;;;;;;;;;35.00;31.00;;;;;;;;5082588;27;45204;-76
2021/12/15 15:09:19;;;;;;;;;35.33;31.67;;;;;;;;5081205;28;47041;-79
2021/12/15 15:11:52;;;;;;;;;35.67;32.00;;;;;;;;5081938;27;45313;-78
2021/12/15 15:14:24;;;;;;;;;37.33;34.00;;;;;;;;5081458;28;45243;-78
2021/12/15 15:16:50;;;;;;;;;30.33;27.67;;;;;;;;5081399;27;45640;-78
2021/12/15 15:19:19;;;;;;;;;32.67;30.00;;;;;;;;5080064;28;47216;-78
2021/12/15 15:21:44;;;;;;;;;36.33;32.33;;;;;;;;5081430;27;45287;-78
2021/12/15 15:24:21;;;;;;;;;38.00;32.25;;;;;;;;5080022;28;45350;-78
2021/12/15 15:26:58;;;;;;;;;36.33;32.33;;;;;;;;5081228;27;45258;-78
2021/12/15 15:29:40;;;;;;;;;39.67;32.33;;;;;;;;5080900;27;45520;-77
2021/12/15 15:32:10;;;;;;;;;33.00;30.33;;;;;;;;5079995;28;45322;-77
2021/12/15 15:34:36;;;;;;;;;31.00;27.00;;;;;;;;5079890;28;45311;-77
2021/12/15 15:37:09;;;;;;;;;25.67;25.00;;;;;;;;5081130;28;45428;-77
2021/12/15 15:39:34;;;;;;;;;27.00;25.67;;;;;;;;5079648;27;46567;-77
2021/12/15 15:41:59;;;;;;;;;23.33;23.00;;;;;;;;5093559;27;45301;-78
2021/12/15 15:44:32;;;;;;;;;33.00;30.33;;;;;;;;5100067;27;45298;-77
2021/12/15 15:46:58;;;;;;;;;25.67;20.67;;;;;;;;5099925;27;47160;-77